Station BKBF1 - 8720357 - I-295 Buckman Bridge, St Johns River, FL Image indicating link to RSS feed of recent meteorological observations for station BKBF1


Conditions at BKBF1 as of
(6:48 pm EDT)
2248 GMT on 08/31/2026:
     

Click on the graph icon in the table below to see a time series plot of the last five days of that observation.

5-day plot - Wind Direction Wind Direction (WDIR): E ( 90 deg true )
5-day plot - Wind Speed Wind Speed (WSPD): 9.9 kts
5-day plot - Wind Gust Wind Gust (GST): 12.0 kts
5-day plot - Atmospheric Pressure Atmospheric Pressure (PRES):30.04 in
5-day plot - Air Temperature Air Temperature (ATMP): 85.1 °F
5-day plot - Wind Speed at 10 Meters Wind Speed at 10 meters (WSPD10M): 9.7 kts
5-day plot - Wind Speed at 20 Meters Wind Speed at 20 meters (WSPD20M): 11.7 kts
5-day plot -  Wind Speed, Wind Gust and Atmospheric Pressure Combined plot of Wind Speed, Gust, and Air Pressure
NOS Water Level Observation Network Water Level
Previous observations
TIME
(EDT)
5-day plot - Wind Direction
WDIR
 
5-day plot - Wind Speed
WSPD
kts
5-day plot - Wind Gust
GST
kts
5-day plot - Wave Height
WVHT
ft
5-day plot - Dominant Wave Period
DPD
sec
5-day plot - Average Wave Period
APD
sec
5-day plot - Mean Wave Direction
MWD
 
5-day plot - Atmospheric Pressure
PRES
in
5-day plot - Pressure Tendency
PTDY
in
5-day plot - Air Temperature
ATMP
°F
5-day plot - Water Temperature
WTMP
°F
5-day plot - Dew Point
DEWP
°F
5-day plot - Salinity
SAL
psu
5-day plot - Visibility
VIS
nmi
5-day plot - Tide (above MLLW)
TIDE
ft
2026-08-31 06:42 pmENE 8.9 12.0----30.03- 85.3-----
2026-08-31 06:36 pmENE 9.9 12.0----30.03- 85.5-----
2026-08-31 06:30 pm E 8.0 11.1----30.03- 85.5-----
2026-08-31 06:24 pmENE 8.9 11.1----30.03- 85.6-----
2026-08-31 06:18 pmENE 8.9 9.9----30.03- 85.6-----
2026-08-31 06:12 pm E 8.9 9.9----30.02- 85.5-----
2026-08-31 06:06 pm E 8.9 11.1----30.02- 85.5-----
2026-08-31 06:00 pm E 9.9 11.1----30.02-0.02 85.5-----
2026-08-31 05:54 pm E 7.0 8.9----30.02- 85.5-----
2026-08-31 05:48 pm E 8.0 8.9----30.03- 85.6-----
2026-08-31 05:42 pmENE 7.0 8.9----30.03- 85.6-----
2026-08-31 05:36 pm E 8.9 9.9----30.03- 85.6-----
2026-08-31 05:30 pm E 8.0 12.0----30.02- 85.6-----
2026-08-31 05:24 pm E 8.0 9.9----30.03- 85.6-----
2026-08-31 05:18 pm E 8.9 11.1----30.03-------
2026-08-31 05:12 pmENE 8.9 11.1----30.03-------
2026-08-31 05:06 pmENE 8.9 9.9----30.03-------
2026-08-31 05:00 pmENE 9.9 11.1----30.03-0.03 85.6-----
2026-08-31 04:54 pmENE 8.9 11.1----30.03- 85.6-----
2026-08-31 04:48 pmENE 8.9 11.1----30.03- 85.6-----
2026-08-31 04:42 pmENE 8.9 12.0----30.03- 85.6-----
2026-08-31 04:36 pmENE 8.9 12.0----30.03- 85.5-----
2026-08-31 04:30 pmENE 11.1 12.0----30.03- 85.5-----
2026-08-31 04:24 pmENE 11.1 13.0----30.03- 85.3-----
2026-08-31 04:18 pm NE 9.9 13.0----30.03-------
2026-08-31 04:12 pmENE 11.1 14.0----30.02-------
2026-08-31 04:06 pmENE 9.9 13.0----30.03-------
2026-08-31 04:00 pmENE 12.0 14.0----30.03-0.05 85.6-----
2026-08-31 03:54 pmENE 9.9 12.0----30.03- 85.8-----
2026-08-31 03:48 pmENE 11.1 13.0----30.03- 85.6-----
2026-08-31 03:42 pmENE 9.9 13.0----30.03- 85.8-----
2026-08-31 03:36 pmENE 11.1 13.0----30.03- 85.6-----
2026-08-31 03:30 pm NE 11.1 13.0----30.03- 85.6-----
2026-08-31 03:24 pmENE 11.1 13.0----30.03- 85.6-----
2026-08-31 03:18 pm NE 9.9 12.0----30.03-------
2026-08-31 03:12 pmENE 11.1 14.0----30.03-------
2026-08-31 03:06 pm NE 8.9 11.1----30.04-------
2026-08-31 03:00 pmENE 9.9 12.0----30.04-0.05 85.6-----
2026-08-31 02:54 pmENE 9.9 12.0----30.04- 85.6-----
2026-08-31 02:48 pmENE 9.9 12.0----30.04- 85.5-----
2026-08-31 02:42 pmENE 8.0 8.9----30.05- 85.6-----
2026-08-31 02:36 pm NE 8.9 9.9----30.05- 85.3-----
2026-08-31 02:30 pm NE 8.9 11.1----30.05- 85.3-----
2026-08-31 02:24 pm NE 9.9 11.1----30.06- 84.9-----
2026-08-31 02:18 pm NE 11.1 12.0----30.06-------
2026-08-31 02:12 pmENE 8.9 12.0----30.06-------
2026-08-31 02:06 pmENE 9.9 12.0----30.06-------
2026-08-31 02:00 pm NE 8.9 11.1----30.06-0.03 84.9-----
2026-08-31 01:54 pm NE 8.9 9.9----30.06- 84.7-----
2026-08-31 01:48 pm NE 8.9 9.9----30.06-------
2026-08-31 01:42 pmENE 9.9 11.1----30.07-------
2026-08-31 01:36 pmENE 8.9 12.0----30.07-------
2026-08-31 01:30 pmENE 9.9 11.1----30.07- 84.2-----
2026-08-31 01:24 pm NE 9.9 12.0----30.08- 84.0-----
2026-08-31 01:18 pmENE 9.9 12.0----30.08-------
2026-08-31 01:12 pmENE 9.9 11.1----30.08-------
2026-08-31 01:06 pmENE 9.9 11.1----30.08-------
2026-08-31 01:00 pmENE 9.9 11.1----30.08+0.00 84.0-----
2026-08-31 12:54 pmENE 8.9 11.1----30.08- 83.8-----
2026-08-31 12:48 pmENE 8.9 11.1----30.08- 83.7-----
2026-08-31 12:42 pmENE 8.9 11.1----30.09- 83.8-----
2026-08-31 12:36 pmENE 8.9 9.9----30.09- 83.7-----
2026-08-31 12:30 pmENE 9.9 12.0----30.09- 83.5-----
2026-08-31 12:24 pmENE 11.1 12.0----30.09- 83.5-----
2026-08-31 12:18 pmENE 11.1 11.1----30.09-------
2026-08-31 12:12 pmENE 11.1 14.0----30.09-------
2026-08-31 12:06 pmENE 9.9 12.0----30.09-------
2026-08-31 12:00 pmENE 6.0 8.0----30.09+0.03 85.3-----
2026-08-31 11:54 am E 5.1 5.1----30.09- 85.3-----
2026-08-31 11:48 amENE 5.1 6.0----30.09- 85.1-----
2026-08-31 11:42 amENE 4.1 5.1----30.10- 84.9-----
2026-08-31 11:36 am NE 4.1 5.1----30.10- 84.9-----
2026-08-31 11:30 am NE 2.9 5.1----30.10- 85.1-----
2026-08-31 11:24 am NE 4.1 6.0----30.10- 84.7-----
2026-08-31 11:18 am NE 6.0 6.0----30.10-------
2026-08-31 11:12 am NE 2.9 4.1----30.10-------
2026-08-31 11:06 am NE 2.9 4.1----30.09-------
2026-08-31 11:00 amENE 2.9 2.9----30.09+0.04 84.4-----
2026-08-31 10:54 amENE 1.9 4.1----30.09- 84.2-----
2026-08-31 10:48 amENE 2.9 4.1----30.09- 84.0-----
2026-08-31 10:42 am NE 2.9 5.1----30.09- 83.8-----
2026-08-31 10:36 amENE 4.1 5.1----30.09- 83.5-----
2026-08-31 10:30 amENE 4.1 6.0----30.09- 83.3-----
2026-08-31 10:24 amENE 4.1 5.1----30.08- 83.1-----
2026-08-31 10:18 amENE 4.1 5.1----30.08-------
2026-08-31 10:12 am E 4.1 5.1----30.08-------
2026-08-31 10:06 am E 5.1 6.0----30.08-------
2026-08-31 10:00 am E 5.1 6.0----30.07+0.04 82.6-----
2026-08-31 09:54 am E 5.1 6.0----30.07- 82.2-----
2026-08-31 09:48 amENE 4.1 5.1----30.07-------
2026-08-31 09:42 am E 4.1 5.1----30.07-------
2026-08-31 09:36 amENE 5.1 5.1----30.06-------
2026-08-31 09:30 am E 4.1 4.1----30.06- 82.2-----
2026-08-31 09:24 am E 2.9 2.9----30.06- 82.2-----
2026-08-31 09:18 am E 1.9 2.9----30.06-------
2026-08-31 09:12 am E 1.9 2.9----30.06-------
2026-08-31 09:06 amENE 2.9 4.1----30.06-------
2026-08-31 09:00 am E 2.9 5.1----30.06+0.04 81.9-----
2026-08-31 08:54 amENE 4.1 5.1----30.06- 81.7-----
2026-08-31 08:48 am NE 5.1 6.0----30.06-------
2026-08-31 08:42 am NE 5.1 6.0----30.06-------
2026-08-31 08:36 am NE 4.1 6.0----30.06-------
2026-08-31 08:30 amENE 2.9 4.1----30.06- 81.3-----
2026-08-31 08:24 amENE 2.9 5.1----30.06- 81.3-----
2026-08-31 08:18 amENE 5.1 6.0----30.06-------
2026-08-31 08:12 amENE 4.1 5.1----30.05-------
2026-08-31 08:06 amENE 4.1 5.1----30.05-------
2026-08-31 08:00 am N 2.9 4.1----30.05+0.03 81.0-----
2026-08-31 07:54 amNNE 1.9 5.1----30.05- 81.1-----
2026-08-31 07:48 amENE 5.1 7.0----30.05-------
2026-08-31 07:42 am N 1.9 2.9----30.05-------
2026-08-31 07:36 am N 2.9 4.1----30.04-------
2026-08-31 07:30 am N 1.9 2.9----30.04- 79.2-----
2026-08-31 07:24 amNNW 1.0 1.9----30.04- 79.0-----
2026-08-31 07:18 amNNW 1.9 2.9----30.04-------
2026-08-31 07:12 amNNW 1.9 2.9----30.03-------
2026-08-31 07:06 amWNW 1.9 4.1----30.03-------
2026-08-31 07:00 amNNW 2.9 2.9----30.03+0.02 78.6-----
2026-08-31 06:54 amNNW 2.9 2.9----30.03- 78.4-----
2026-08-31 06:48 am NW 2.9 5.1----30.03- 78.3-----
2026-08-31 06:42 amWNW 2.9 4.1----30.03- 78.4-----
2026-08-31 06:36 am W 4.1 5.1----30.03- 78.6-----
2026-08-31 06:30 amNNW 4.1 4.1----30.03- 78.6-----
2026-08-31 06:24 am NW 1.9 2.9----30.02- 78.8-----
2026-08-31 06:18 amNNW 2.9 2.9----30.02-------
2026-08-31 06:12 amNNW 1.9 4.1----30.02-------
2026-08-31 06:06 amENE 1.0 2.9----30.02-------
2026-08-31 06:00 am- 0.0 1.9----30.02-0.01 79.2-----
2026-08-31 05:54 am N 1.9 2.9----30.02- 79.5-----
2026-08-31 05:48 am N 1.9 2.9----30.02- 79.9-----
2026-08-31 05:42 amENE 2.9 5.1----30.02- 80.8-----
2026-08-31 05:36 amENE 4.1 6.0----30.02- 81.0-----
2026-08-31 05:30 amENE 5.1 7.0----30.02- 81.0-----
2026-08-31 05:24 amENE 6.0 7.0----30.03- 80.8-----
2026-08-31 05:18 amENE 6.0 7.0----30.02-------
2026-08-31 05:12 amENE 6.0 7.0----30.02-------
2026-08-31 05:06 amENE 6.0 7.0----30.02-------
2026-08-31 05:00 am E 6.0 7.0----30.02-0.02 81.0-----
2026-08-31 04:54 am E 6.0 7.0----30.02- 81.1-----
2026-08-31 04:48 am E 5.1 6.0----30.02- 81.1-----
2026-08-31 04:42 am E 4.1 6.0----30.02- 81.1-----
2026-08-31 04:36 am E 5.1 6.0----30.02- 81.0-----
2026-08-31 04:30 am E 4.1 5.1----30.01- 81.0-----
2026-08-31 04:24 am E 4.1 5.1----30.02- 81.1-----
2026-08-31 04:18 am E 5.1 5.1----30.02-------
2026-08-31 04:12 am E 5.1 5.1----30.02-------
2026-08-31 04:06 am E 4.1 6.0----30.02-------
2026-08-31 04:00 am E 4.1 5.1----30.01-0.03 81.1-----
2026-08-31 03:54 am E 4.1 5.1----30.02- 81.0-----
2026-08-31 03:48 am E 4.1 5.1----30.02- 80.8-----
2026-08-31 03:42 am E 5.1 6.0----30.02- 80.8-----
2026-08-31 03:36 am E 5.1 6.0----30.03- 80.8-----
2026-08-31 03:30 amENE 5.1 6.0----30.03- 80.8-----
2026-08-31 03:24 amENE 5.1 6.0----30.03- 80.8-----
2026-08-31 03:18 am NE 5.1 6.0----30.03- 80.8-----
2026-08-31 03:12 am NE 6.0 7.0----30.03- 80.6-----
2026-08-31 03:06 amENE 5.1 7.0----30.03- 80.8-----
2026-08-31 03:00 amENE 6.0 7.0----30.03-0.02 80.8-----
2026-08-31 02:54 amENE 6.0 7.0----30.03- 80.6-----
2026-08-31 02:48 amENE 5.1 6.0----30.03- 80.8-----
2026-08-31 02:42 amENE 6.0 7.0----30.03- 80.6-----
2026-08-31 02:36 amENE 6.0 8.0----30.03- 80.8-----
2026-08-31 02:30 amENE 7.0 8.0----30.04-------
2026-08-31 02:24 amENE 8.0 8.9----30.04-------
2026-08-31 02:18 am--------- 81.1-----
2026-08-31 02:12 am--------- 81.0-----
2026-08-31 02:06 am--------- 80.8-----
2026-08-31 02:00 am NE 6.0 8.0----30.04-0.02 80.6-----
2026-08-31 01:54 amNNE 5.1 7.0----30.04- 80.1-----
2026-08-31 01:48 amNNE 4.1 7.0----30.04- 79.9-----
2026-08-31 01:42 am N 5.1 6.0----30.04- 79.9-----
2026-08-31 01:36 am N 2.9 5.1----30.05- 80.1-----
2026-08-31 01:30 am N 4.1 8.0----30.05- 80.2-----
2026-08-31 01:24 amNNE 6.0 8.9----30.05- 80.4-----
2026-08-31 01:18 am NE 6.0 8.0----30.05-------
2026-08-31 01:12 amNNE 5.1 8.0----30.05-------
2026-08-31 01:06 am NE 8.0 9.9----30.05-------
2026-08-31 01:00 am NE 8.0 11.1----30.05-0.02 81.0-----
2026-08-31 12:54 am NE 8.9 12.0----30.05- 80.6-----
2026-08-31 12:48 am NE 8.9 11.1----30.04- 80.6-----
2026-08-31 12:42 am NE 8.9 9.9----30.04- 80.8-----
2026-08-31 12:36 am NE 8.0 9.9----30.05- 80.6-----
2026-08-31 12:30 am NE 8.0 8.9----30.05- 80.8-----
2026-08-31 12:24 amENE 8.0 9.9----30.05- 81.0-----
2026-08-31 12:18 am NE 8.0 8.9----30.05- 80.8-----
2026-08-31 12:12 amENE 8.0 9.9----30.05- 80.8-----
2026-08-31 12:06 am NE 8.0 11.1----30.05- 80.8-----
2026-08-31 12:00 am NE 8.9 11.1----30.05-0.02 80.8-----
2026-08-30 11:54 pmENE 9.9 11.1----30.05- 81.0-----
2026-08-30 11:48 pm NE 9.9 11.1----30.06- 81.0-----
2026-08-30 11:42 pm NE 9.9 11.1----30.06- 81.1-----
2026-08-30 11:36 pm NE 9.9 12.0----30.06- 81.0-----
2026-08-30 11:30 pm NE 8.0 11.1----30.06- 81.1-----
2026-08-30 11:24 pm NE 7.0 8.0----30.06- 81.0-----
2026-08-30 11:18 pm NE 7.0 9.9----30.06- 81.0-----
2026-08-30 11:12 pm NE 7.0 9.9----30.06- 81.1-----
2026-08-30 11:06 pm NE 7.0 11.1----30.06- 81.3-----
2026-08-30 11:00 pmENE 8.9 11.1----30.06+0.02 81.1-----
2026-08-30 10:54 pm NE 8.9 9.9----30.06- 81.1-----
2026-08-30 10:48 pmENE 8.9 9.9----30.06- 81.1-----
2026-08-30 10:42 pmENE 8.0 9.9----30.07- 81.3-----
2026-08-30 10:36 pm E 8.0 11.1----30.07- 81.3-----
2026-08-30 10:30 pmENE 8.9 9.9----30.07- 81.3-----
2026-08-30 10:24 pmENE 7.0 8.0----30.07- 81.3-----
2026-08-30 10:18 pm E 7.0 8.9----30.06-------
2026-08-30 10:12 pm E 7.0 8.9----30.06-------
2026-08-30 10:06 pm E 7.0 8.9----30.07-------
2026-08-30 10:00 pmENE 6.0 8.0----30.07+0.03 81.1-----
2026-08-30 09:54 pm E 7.0 9.9----30.07- 81.1-----
2026-08-30 09:48 pm E 7.0 8.9----30.07- 81.1-----
2026-08-30 09:42 pmENE 7.0 9.9----30.07- 81.3-----
2026-08-30 09:36 pm E 7.0 8.9----30.06- 81.1-----
2026-08-30 09:30 pm E 8.0 9.9----30.06- 81.3-----
2026-08-30 09:24 pmENE 7.0 9.9----30.06- 81.3-----
2026-08-30 09:18 pmENE 8.0 9.9----30.06- 81.3-----
2026-08-30 09:12 pmENE 8.0 11.1----30.06- 81.3-----
2026-08-30 09:06 pmENE 8.9 9.9----30.07- 81.3-----
2026-08-30 09:00 pm E 8.9 11.1----30.07+0.04 81.5-----
2026-08-30 08:54 pm E 8.0 9.9----30.06- 81.9-----
2026-08-30 08:48 pm E 8.0 9.9----30.06-------
2026-08-30 08:42 pm E 8.0 9.9----30.06-------
2026-08-30 08:36 pm E 7.0 8.9----30.06-------
2026-08-30 08:30 pm E 8.0 9.9----30.05- 82.4-----
2026-08-30 08:24 pm E 8.0 8.9----30.05- 82.6-----
2026-08-30 08:18 pm E 7.0 8.9----30.05-------
2026-08-30 08:12 pm E 6.0 8.0----30.05-------
2026-08-30 08:06 pm E 5.1 8.0----30.05-------
2026-08-30 08:00 pm E 6.0 8.0----30.05+0.02 82.6-----
2026-08-30 07:54 pm E 6.0 8.0----30.05- 82.8-----
2026-08-30 07:48 pm E 6.0 8.0----30.05-------
2026-08-30 07:42 pm E 7.0 8.0----30.05-------
2026-08-30 07:36 pm E 7.0 8.0----30.05-------
2026-08-30 07:30 pm E 7.0 8.9----30.05- 82.9-----
2026-08-30 07:24 pm E 8.0 9.9----30.05- 82.8-----
2026-08-30 07:18 pm E 7.0 9.9----30.05-------
2026-08-30 07:12 pm E 8.9 9.9----30.05-------
2026-08-30 07:06 pm E 8.9 9.9----30.04-------
2026-08-30 07:00 pm E 8.9 9.9----30.04-0.01 83.3-----
2026-08-30 06:54 pm E 8.0 9.9----30.04- 83.5-----